Decoded Metar for LYKV (KRALJEVO/LADEVCI in SERBIA) (IATA:N/A) | Meteo·Mobile Aviation Weather
aviador You're here:

LYKV Decoded Metar

KRALJEVO/LADEVCI in SERBIA
Report Time2019-01-18 11:00:00
UTC Time2019-01-18 11:13:55
Flight Rules ifr IFR
WindVRB at 01 kt
Visibility4000 m
Phenomena:Mist
Clouds:N/A
Expected CloudBase > 1,200 ft AGL from Temp-Dew spread
CeilingNone
Temp00°C (ISA -14)
Dew Point-3°C (80% RH)
AAT-2.7°C
QNH1013 hPa
Density Alt-899 ft
Elevation694 ft
Report Wrong Elevation
Raw Report
METAR LYKV 181100Z VRB01KT 4000 BR NSC M00/M03 Q1013 BECMG 6000 NSW=

Extra information for LYKV:More info

Metar Taf Metar & Taf Last 4 Metars F.Rules Stats Wind Profile Meteogram Temp Stats Airport Information Weather charts Add Link Nearby VenuesMetar ALERT Operation Metar Decoded Social comments